sensor_id;sensor_type;location;lat;lon;timestamp;temperature;humidity
56478;DHT22;42382;53.210;5.772;2023-07-20T00:01:04;15.80;79.90
56478;DHT22;42382;53.210;5.772;2023-07-20T00:03:29;15.80;80.00
56478;DHT22;42382;53.210;5.772;2023-07-20T00:05:55;15.70;80.10
56478;DHT22;42382;53.210;5.772;2023-07-20T00:08:21;15.70;80.20
56478;DHT22;42382;53.210;5.772;2023-07-20T00:10:46;15.70;80.30
56478;DHT22;42382;53.210;5.772;2023-07-20T00:13:12;15.60;80.40
56478;DHT22;42382;53.210;5.772;2023-07-20T00:15:38;15.50;80.40
56478;DHT22;42382;53.210;5.772;2023-07-20T00:18:04;15.50;80.50
56478;DHT22;42382;53.210;5.772;2023-07-20T00:20:30;15.40;80.50
56478;DHT22;42382;53.210;5.772;2023-07-20T00:22:56;15.40;80.60
56478;DHT22;42382;53.210;5.772;2023-07-20T00:25:23;15.30;80.50
56478;DHT22;42382;53.210;5.772;2023-07-20T00:27:49;15.30;80.60
56478;DHT22;42382;53.210;5.772;2023-07-20T00:30:18;15.30;80.60
56478;DHT22;42382;53.210;5.772;2023-07-20T00:32:44;15.30;80.70
56478;DHT22;42382;53.210;5.772;2023-07-20T00:35:10;15.20;80.70
56478;DHT22;42382;53.210;5.772;2023-07-20T00:37:37;15.10;80.70
56478;DHT22;42382;53.210;5.772;2023-07-20T00:40:05;15.10;80.80
56478;DHT22;42382;53.210;5.772;2023-07-20T00:42:32;15.10;80.80
56478;DHT22;42382;53.210;5.772;2023-07-20T00:44:58;15.00;80.90
56478;DHT22;42382;53.210;5.772;2023-07-20T00:47:24;15.00;80.80
56478;DHT22;42382;53.210;5.772;2023-07-20T00:49:50;15.00;80.80
56478;DHT22;42382;53.210;5.772;2023-07-20T00:52:16;14.90;81.00
56478;DHT22;42382;53.210;5.772;2023-07-20T00:54:44;14.90;81.00
56478;DHT22;42382;53.210;5.772;2023-07-20T00:57:10;14.90;81.10
56478;DHT22;42382;53.210;5.772;2023-07-20T00:59:36;14.80;81.10
56478;DHT22;42382;53.210;5.772;2023-07-20T01:02:02;14.80;81.20
56478;DHT22;42382;53.210;5.772;2023-07-20T01:04:28;14.80;81.20
56478;DHT22;42382;53.210;5.772;2023-07-20T01:07:14;14.80;81.20
56478;DHT22;42382;53.210;5.772;2023-07-20T01:12:42;14.70;81.30
56478;DHT22;42382;53.210;5.772;2023-07-20T01:15:09;14.70;81.10
56478;DHT22;42382;53.210;5.772;2023-07-20T01:17:35;14.60;81.20
56478;DHT22;42382;53.210;5.772;2023-07-20T01:20:01;14.60;81.20
56478;DHT22;42382;53.210;5.772;2023-07-20T01:33:42;14.50;81.00
56478;DHT22;42382;53.210;5.772;2023-07-20T01:36:08;14.50;81.10
56478;DHT22;42382;53.210;5.772;2023-07-20T01:38:36;14.40;81.10
56478;DHT22;42382;53.210;5.772;2023-07-20T01:41:03;14.40;81.10
56478;DHT22;42382;53.210;5.772;2023-07-20T01:43:29;14.40;81.10
56478;DHT22;42382;53.210;5.772;2023-07-20T01:45:54;14.40;81.10
56478;DHT22;42382;53.210;5.772;2023-07-20T01:48:20;14.30;81.10
56478;DHT22;42382;53.210;5.772;2023-07-20T01:50:45;14.30;81.10
56478;DHT22;42382;53.210;5.772;2023-07-20T01:53:11;14.30;81.00
56478;DHT22;42382;53.210;5.772;2023-07-20T01:55:37;14.20;81.00
56478;DHT22;42382;53.210;5.772;2023-07-20T01:58:02;14.20;81.10
56478;DHT22;42382;53.210;5.772;2023-07-20T02:00:29;14.20;81.10
56478;DHT22;42382;53.210;5.772;2023-07-20T02:02:55;14.20;81.20
56478;DHT22;42382;53.210;5.772;2023-07-20T02:05:20;14.20;81.20
56478;DHT22;42382;53.210;5.772;2023-07-20T02:07:46;14.10;81.20
56478;DHT22;42382;53.210;5.772;2023-07-20T02:10:12;14.10;81.20
56478;DHT22;42382;53.210;5.772;2023-07-20T02:12:37;14.10;81.20
56478;DHT22;42382;53.210;5.772;2023-07-20T02:15:03;14.10;81.40
56478;DHT22;42382;53.210;5.772;2023-07-20T02:17:29;14.00;81.50
56478;DHT22;42382;53.210;5.772;2023-07-20T02:19:56;14.10;81.50
56478;DHT22;42382;53.210;5.772;2023-07-20T02:22:23;14.00;81.50
56478;DHT22;42382;53.210;5.772;2023-07-20T02:24:49;14.00;81.50
56478;DHT22;42382;53.210;5.772;2023-07-20T02:27:16;14.00;81.40
56478;DHT22;42382;53.210;5.772;2023-07-20T02:29:42;13.90;81.40
56478;DHT22;42382;53.210;5.772;2023-07-20T02:32:08;13.90;81.50
56478;DHT22;42382;53.210;5.772;2023-07-20T02:34:35;13.90;81.60
56478;DHT22;42382;53.210;5.772;2023-07-20T02:37:01;13.80;81.60
56478;DHT22;42382;53.210;5.772;2023-07-20T02:39:29;13.90;81.70
56478;DHT22;42382;53.210;5.772;2023-07-20T02:41:55;13.80;81.70
56478;DHT22;42382;53.210;5.772;2023-07-20T02:44:21;13.80;81.70
56478;DHT22;42382;53.210;5.772;2023-07-20T02:46:47;13.80;81.60
56478;DHT22;42382;53.210;5.772;2023-07-20T02:49:12;13.80;81.60
56478;DHT22;42382;53.210;5.772;2023-07-20T02:51:38;13.70;81.70
56478;DHT22;42382;53.210;5.772;2023-07-20T02:54:03;13.80;81.70
56478;DHT22;42382;53.210;5.772;2023-07-20T02:56:29;13.70;81.80
56478;DHT22;42382;53.210;5.772;2023-07-20T02:58:55;13.70;81.80
56478;DHT22;42382;53.210;5.772;2023-07-20T03:01:20;13.70;81.90
56478;DHT22;42382;53.210;5.772;2023-07-20T03:03:46;13.60;81.90
56478;DHT22;42382;53.210;5.772;2023-07-20T03:06:16;13.60;81.90
56478;DHT22;42382;53.210;5.772;2023-07-20T03:08:42;13.60;82.00
56478;DHT22;42382;53.210;5.772;2023-07-20T03:11:16;13.60;81.90
56478;DHT22;42382;53.210;5.772;2023-07-20T03:13:42;13.60;82.00
56478;DHT22;42382;53.210;5.772;2023-07-20T03:16:08;13.60;82.00
56478;DHT22;42382;53.210;5.772;2023-07-20T03:18:37;13.60;82.00
56478;DHT22;42382;53.210;5.772;2023-07-20T03:21:04;13.60;82.10
56478;DHT22;42382;53.210;5.772;2023-07-20T03:23:30;13.50;82.10
56478;DHT22;42382;53.210;5.772;2023-07-20T03:25:56;13.50;82.10
56478;DHT22;42382;53.210;5.772;2023-07-20T03:28:21;13.50;82.10
56478;DHT22;42382;53.210;5.772;2023-07-20T03:30:53;13.50;82.20
56478;DHT22;42382;53.210;5.772;2023-07-20T03:33:20;13.50;82.30
56478;DHT22;42382;53.210;5.772;2023-07-20T03:35:45;13.50;82.30
56478;DHT22;42382;53.210;5.772;2023-07-20T03:38:11;13.40;82.30
56478;DHT22;42382;53.210;5.772;2023-07-20T03:40:36;13.40;82.40
56478;DHT22;42382;53.210;5.772;2023-07-20T03:43:02;13.50;82.50
56478;DHT22;42382;53.210;5.772;2023-07-20T03:45:28;13.50;82.60
56478;DHT22;42382;53.210;5.772;2023-07-20T03:47:54;13.50;82.60
56478;DHT22;42382;53.210;5.772;2023-07-20T03:50:19;13.50;82.70
56478;DHT22;42382;53.210;5.772;2023-07-20T03:52:45;13.50;82.80
56478;DHT22;42382;53.210;5.772;2023-07-20T03:55:11;13.50;82.70
56478;DHT22;42382;53.210;5.772;2023-07-20T03:57:36;13.50;82.70
56478;DHT22;42382;53.210;5.772;2023-07-20T04:00:02;13.50;82.70
56478;DHT22;42382;53.210;5.772;2023-07-20T04:02:32;13.60;82.70
56478;DHT22;42382;53.210;5.772;2023-07-20T04:04:57;13.50;82.70
56478;DHT22;42382;53.210;5.772;2023-07-20T04:07:23;13.50;82.70
56478;DHT22;42382;53.210;5.772;2023-07-20T04:09:49;13.60;82.70
56478;DHT22;42382;53.210;5.772;2023-07-20T04:12:14;13.50;82.70
56478;DHT22;42382;53.210;5.772;2023-07-20T04:14:40;13.40;82.70
56478;DHT22;42382;53.210;5.772;2023-07-20T04:17:05;13.50;82.70
56478;DHT22;42382;53.210;5.772;2023-07-20T04:19:31;13.50;82.80
56478;DHT22;42382;53.210;5.772;2023-07-20T04:21:56;13.50;82.80
56478;DHT22;42382;53.210;5.772;2023-07-20T04:24:22;13.40;82.90
56478;DHT22;42382;53.210;5.772;2023-07-20T04:26:48;13.50;82.90
56478;DHT22;42382;53.210;5.772;2023-07-20T04:29:14;13.50;82.90
56478;DHT22;42382;53.210;5.772;2023-07-20T04:31:39;13.50;83.00
56478;DHT22;42382;53.210;5.772;2023-07-20T04:34:05;13.50;83.00
56478;DHT22;42382;53.210;5.772;2023-07-20T04:36:30;13.50;83.10
56478;DHT22;42382;53.210;5.772;2023-07-20T04:38:56;13.50;83.20
56478;DHT22;42382;53.210;5.772;2023-07-20T04:41:22;13.50;83.20
56478;DHT22;42382;53.210;5.772;2023-07-20T04:43:47;13.60;83.20
56478;DHT22;42382;53.210;5.772;2023-07-20T04:46:14;13.60;83.20
56478;DHT22;42382;53.210;5.772;2023-07-20T04:48:39;13.60;83.30
56478;DHT22;42382;53.210;5.772;2023-07-20T04:51:06;13.60;83.30
56478;DHT22;42382;53.210;5.772;2023-07-20T04:53:31;13.60;83.30
56478;DHT22;42382;53.210;5.772;2023-07-20T04:55:57;13.60;83.40
56478;DHT22;42382;53.210;5.772;2023-07-20T04:58:22;13.70;83.40
56478;DHT22;42382;53.210;5.772;2023-07-20T05:00:49;13.70;83.40
56478;DHT22;42382;53.210;5.772;2023-07-20T05:03:15;13.80;83.50
56478;DHT22;42382;53.210;5.772;2023-07-20T05:05:40;13.80;83.50
56478;DHT22;42382;53.210;5.772;2023-07-20T05:08:06;13.80;83.60
56478;DHT22;42382;53.210;5.772;2023-07-20T05:10:32;13.90;83.70
56478;DHT22;42382;53.210;5.772;2023-07-20T05:12:58;13.90;83.70
56478;DHT22;42382;53.210;5.772;2023-07-20T05:15:24;13.90;83.80
56478;DHT22;42382;53.210;5.772;2023-07-20T05:17:50;14.00;83.70
56478;DHT22;42382;53.210;5.772;2023-07-20T05:20:15;14.00;83.70
56478;DHT22;42382;53.210;5.772;2023-07-20T05:22:42;14.10;83.80
56478;DHT22;42382;53.210;5.772;2023-07-20T05:25:08;14.20;83.90
56478;DHT22;42382;53.210;5.772;2023-07-20T05:27:38;14.30;84.00
56478;DHT22;42382;53.210;5.772;2023-07-20T05:30:05;14.40;84.20
56478;DHT22;42382;53.210;5.772;2023-07-20T05:32:31;14.50;84.10
56478;DHT22;42382;53.210;5.772;2023-07-20T05:34:56;14.60;84.10
56478;DHT22;42382;53.210;5.772;2023-07-20T05:37:22;14.70;84.00
56478;DHT22;42382;53.210;5.772;2023-07-20T05:39:48;14.70;83.80
56478;DHT22;42382;53.210;5.772;2023-07-20T05:42:14;14.80;83.60
56478;DHT22;42382;53.210;5.772;2023-07-20T05:44:40;14.80;83.50
56478;DHT22;42382;53.210;5.772;2023-07-20T05:47:06;14.80;83.40
56478;DHT22;42382;53.210;5.772;2023-07-20T05:49:32;14.90;83.30
56478;DHT22;42382;53.210;5.772;2023-07-20T05:51:57;14.90;83.30
56478;DHT22;42382;53.210;5.772;2023-07-20T05:54:26;15.00;83.20
56478;DHT22;42382;53.210;5.772;2023-07-20T05:56:53;15.00;83.40
56478;DHT22;42382;53.210;5.772;2023-07-20T05:59:19;15.00;83.20
56478;DHT22;42382;53.210;5.772;2023-07-20T06:01:49;15.10;82.90
56478;DHT22;42382;53.210;5.772;2023-07-20T06:04:14;15.10;82.70
56478;DHT22;42382;53.210;5.772;2023-07-20T06:06:40;15.10;82.50
56478;DHT22;42382;53.210;5.772;2023-07-20T06:09:06;15.20;82.30
56478;DHT22;42382;53.210;5.772;2023-07-20T06:11:35;15.20;82.10
56478;DHT22;42382;53.210;5.772;2023-07-20T06:14:01;15.30;81.80
56478;DHT22;42382;53.210;5.772;2023-07-20T06:16:27;15.30;81.60
56478;DHT22;42382;53.210;5.772;2023-07-20T06:18:52;15.40;81.10
56478;DHT22;42382;53.210;5.772;2023-07-20T06:21:18;15.40;80.80
56478;DHT22;42382;53.210;5.772;2023-07-20T06:23:44;15.40;80.40
56478;DHT22;42382;53.210;5.772;2023-07-20T06:26:09;15.40;80.10
56478;DHT22;42382;53.210;5.772;2023-07-20T06:28:35;15.50;79.90
56478;DHT22;42382;53.210;5.772;2023-07-20T06:31:02;15.50;79.50
56478;DHT22;42382;53.210;5.772;2023-07-20T06:33:28;15.50;79.20
56478;DHT22;42382;53.210;5.772;2023-07-20T06:35:54;15.60;78.60
56478;DHT22;42382;53.210;5.772;2023-07-20T06:38:19;15.60;78.50
56478;DHT22;42382;53.210;5.772;2023-07-20T06:40:49;15.70;78.20
56478;DHT22;42382;53.210;5.772;2023-07-20T06:43:14;15.80;77.80
56478;DHT22;42382;53.210;5.772;2023-07-20T06:45:40;15.80;77.50
56478;DHT22;42382;53.210;5.772;2023-07-20T06:48:06;15.90;77.30
56478;DHT22;42382;53.210;5.772;2023-07-20T06:50:32;16.00;77.10
56478;DHT22;42382;53.210;5.772;2023-07-20T06:52:58;16.00;76.30
56478;DHT22;42382;53.210;5.772;2023-07-20T06:55:25;16.00;75.40
56478;DHT22;42382;53.210;5.772;2023-07-20T06:57:51;16.10;75.40
56478;DHT22;42382;53.210;5.772;2023-07-20T07:00:17;16.10;75.20
56478;DHT22;42382;53.210;5.772;2023-07-20T07:02:43;16.10;74.00
56478;DHT22;42382;53.210;5.772;2023-07-20T07:05:09;16.20;73.50
56478;DHT22;42382;53.210;5.772;2023-07-20T07:07:34;16.20;73.60
56478;DHT22;42382;53.210;5.772;2023-07-20T07:10:01;16.40;74.30
56478;DHT22;42382;53.210;5.772;2023-07-20T07:12:30;17.30;73.20
56478;DHT22;42382;53.210;5.772;2023-07-20T07:14:55;18.50;71.10
56478;DHT22;42382;53.210;5.772;2023-07-20T07:17:21;19.60;67.90
56478;DHT22;42382;53.210;5.772;2023-07-20T07:19:47;20.50;65.60
56478;DHT22;42382;53.210;5.772;2023-07-20T07:22:12;21.20;63.20
56478;DHT22;42382;53.210;5.772;2023-07-20T07:24:39;21.90;60.30
56478;DHT22;42382;53.210;5.772;2023-07-20T07:27:08;22.60;59.00
56478;DHT22;42382;53.210;5.772;2023-07-20T07:29:34;23.20;57.10
56478;DHT22;42382;53.210;5.772;2023-07-20T07:32:00;23.50;54.60
56478;DHT22;42382;53.210;5.772;2023-07-20T07:34:27;23.80;54.00
56478;DHT22;42382;53.210;5.772;2023-07-20T07:36:53;24.30;52.00
56478;DHT22;42382;53.210;5.772;2023-07-20T07:39:19;24.60;51.40
56478;DHT22;42382;53.210;5.772;2023-07-20T07:41:45;25.00;51.60
56478;DHT22;42382;53.210;5.772;2023-07-20T07:44:11;25.40;50.30
56478;DHT22;42382;53.210;5.772;2023-07-20T07:46:37;25.30;48.90
56478;DHT22;42382;53.210;5.772;2023-07-20T07:49:02;24.90;49.40
56478;DHT22;42382;53.210;5.772;2023-07-20T07:51:29;24.70;49.10
56478;DHT22;42382;53.210;5.772;2023-07-20T07:53:55;24.60;48.80
56478;DHT22;42382;53.210;5.772;2023-07-20T07:56:20;25.00;48.40
56478;DHT22;42382;53.210;5.772;2023-07-20T07:58:49;25.70;47.60
56478;DHT22;42382;53.210;5.772;2023-07-20T08:01:17;26.00;45.20
56478;DHT22;42382;53.210;5.772;2023-07-20T08:03:44;26.40;45.60
56478;DHT22;42382;53.210;5.772;2023-07-20T08:06:15;26.70;44.70
56478;DHT22;42382;53.210;5.772;2023-07-20T08:08:41;27.20;44.70
56478;DHT22;42382;53.210;5.772;2023-07-20T08:11:08;27.30;43.20
56478;DHT22;42382;53.210;5.772;2023-07-20T08:13:35;26.30;44.40
56478;DHT22;42382;53.210;5.772;2023-07-20T08:16:01;26.40;44.50
56478;DHT22;42382;53.210;5.772;2023-07-20T08:18:28;26.60;43.80
56478;DHT22;42382;53.210;5.772;2023-07-20T08:20:54;27.10;43.50
56478;DHT22;42382;53.210;5.772;2023-07-20T08:23:20;27.30;42.40
56478;DHT22;42382;53.210;5.772;2023-07-20T08:25:45;26.50;42.80
56478;DHT22;42382;53.210;5.772;2023-07-20T08:28:13;25.60;44.30
56478;DHT22;42382;53.210;5.772;2023-07-20T08:30:47;24.90;45.90
56478;DHT22;42382;53.210;5.772;2023-07-20T08:33:17;25.00;46.80
56478;DHT22;42382;53.210;5.772;2023-07-20T08:35:45;25.00;46.70
56478;DHT22;42382;53.210;5.772;2023-07-20T08:38:10;24.70;47.00
56478;DHT22;42382;53.210;5.772;2023-07-20T08:40:44;24.40;47.50
56478;DHT22;42382;53.210;5.772;2023-07-20T08:43:11;24.80;47.60
56478;DHT22;42382;53.210;5.772;2023-07-20T08:45:39;25.30;46.40
56478;DHT22;42382;53.210;5.772;2023-07-20T08:48:06;25.80;45.10
56478;DHT22;42382;53.210;5.772;2023-07-20T08:50:33;26.30;43.80
56478;DHT22;42382;53.210;5.772;2023-07-20T08:52:59;26.20;43.30
56478;DHT22;42382;53.210;5.772;2023-07-20T08:55:26;25.70;43.50
56478;DHT22;42382;53.210;5.772;2023-07-20T08:57:57;25.30;44.50
56478;DHT22;42382;53.210;5.772;2023-07-20T09:00:24;24.70;45.30
56478;DHT22;42382;53.210;5.772;2023-07-20T09:02:52;24.20;45.70
56478;DHT22;42382;53.210;5.772;2023-07-20T09:05:19;23.80;46.40
56478;DHT22;42382;53.210;5.772;2023-07-20T09:07:44;23.50;47.10
56478;DHT22;42382;53.210;5.772;2023-07-20T09:10:10;23.60;47.50
56478;DHT22;42382;53.210;5.772;2023-07-20T09:12:41;23.90;47.20
56478;DHT22;42382;53.210;5.772;2023-07-20T09:15:08;24.30;47.20
56478;DHT22;42382;53.210;5.772;2023-07-20T09:17:34;24.60;46.20
56478;DHT22;42382;53.210;5.772;2023-07-20T09:20:07;24.80;45.70
56478;DHT22;42382;53.210;5.772;2023-07-20T09:22:38;24.60;44.40
56478;DHT22;42382;53.210;5.772;2023-07-20T09:25:11;24.30;45.10
56478;DHT22;42382;53.210;5.772;2023-07-20T09:27:40;23.80;45.00
56478;DHT22;42382;53.210;5.772;2023-07-20T09:30:06;23.40;46.20
56478;DHT22;42382;53.210;5.772;2023-07-20T09:32:40;23.00;47.00
56478;DHT22;42382;53.210;5.772;2023-07-20T09:35:07;22.70;48.50
56478;DHT22;42382;53.210;5.772;2023-07-20T09:37:37;22.90;49.80
56478;DHT22;42382;53.210;5.772;2023-07-20T09:40:06;23.30;49.40
56478;DHT22;42382;53.210;5.772;2023-07-20T09:42:35;23.70;46.40
56478;DHT22;42382;53.210;5.772;2023-07-20T09:45:02;23.90;47.90
56478;DHT22;42382;53.210;5.772;2023-07-20T09:47:28;24.40;46.80
56478;DHT22;42382;53.210;5.772;2023-07-20T09:50:00;24.80;46.60
56478;DHT22;42382;53.210;5.772;2023-07-20T09:52:26;25.10;45.00
56478;DHT22;42382;53.210;5.772;2023-07-20T09:54:52;25.20;44.60
56478;DHT22;42382;53.210;5.772;2023-07-20T09:57:21;25.00;43.80
56478;DHT22;42382;53.210;5.772;2023-07-20T09:59:47;25.20;44.50
56478;DHT22;42382;53.210;5.772;2023-07-20T10:02:25;25.40;44.40
56478;DHT22;42382;53.210;5.772;2023-07-20T10:04:55;25.70;42.60
56478;DHT22;42382;53.210;5.772;2023-07-20T10:07:22;25.80;43.80
56478;DHT22;42382;53.210;5.772;2023-07-20T10:09:53;25.90;43.80
56478;DHT22;42382;53.210;5.772;2023-07-20T10:12:21;26.10;43.10
56478;DHT22;42382;53.210;5.772;2023-07-20T10:15:06;26.20;43.30
56478;DHT22;42382;53.210;5.772;2023-07-20T10:17:40;26.40;42.80
56478;DHT22;42382;53.210;5.772;2023-07-20T10:20:10;26.30;43.00
56478;DHT22;42382;53.210;5.772;2023-07-20T10:22:36;26.00;42.80
56478;DHT22;42382;53.210;5.772;2023-07-20T10:25:02;25.80;42.90
56478;DHT22;42382;53.210;5.772;2023-07-20T10:27:30;25.70;43.40
56478;DHT22;42382;53.210;5.772;2023-07-20T10:29:57;25.30;42.60
56478;DHT22;42382;53.210;5.772;2023-07-20T10:32:24;24.80;42.50
56478;DHT22;42382;53.210;5.772;2023-07-20T10:34:55;24.30;44.40
56478;DHT22;42382;53.210;5.772;2023-07-20T10:37:47;24.00;45.90
56478;DHT22;42382;53.210;5.772;2023-07-20T10:40:33;24.00;45.20
56478;DHT22;42382;53.210;5.772;2023-07-20T10:43:02;24.30;46.70
56478;DHT22;42382;53.210;5.772;2023-07-20T10:45:49;24.30;45.50
56478;DHT22;42382;53.210;5.772;2023-07-20T10:48:20;24.60;44.80
56478;DHT22;42382;53.210;5.772;2023-07-20T10:51:12;24.90;44.40
56478;DHT22;42382;53.210;5.772;2023-07-20T10:53:42;25.10;44.10
56478;DHT22;42382;53.210;5.772;2023-07-20T10:56:14;24.90;44.40
56478;DHT22;42382;53.210;5.772;2023-07-20T10:58:41;24.70;44.50
56478;DHT22;42382;53.210;5.772;2023-07-20T11:01:08;24.50;44.50
56478;DHT22;42382;53.210;5.772;2023-07-20T11:03:37;24.30;44.70
56478;DHT22;42382;53.210;5.772;2023-07-20T11:08:55;24.40;46.20
56478;DHT22;42382;53.210;5.772;2023-07-20T11:11:44;24.50;45.00
56478;DHT22;42382;53.210;5.772;2023-07-20T11:14:23;24.60;44.10
56478;DHT22;42382;53.210;5.772;2023-07-20T11:16:50;24.80;44.00
56478;DHT22;42382;53.210;5.772;2023-07-20T11:19:20;24.80;43.80
56478;DHT22;42382;53.210;5.772;2023-07-20T11:21:54;24.80;44.70
56478;DHT22;42382;53.210;5.772;2023-07-20T11:24:20;24.80;43.40
56478;DHT22;42382;53.210;5.772;2023-07-20T11:26:50;24.70;43.20
56478;DHT22;42382;53.210;5.772;2023-07-20T11:29:17;24.70;42.60
56478;DHT22;42382;53.210;5.772;2023-07-20T11:31:45;24.60;42.60
56478;DHT22;42382;53.210;5.772;2023-07-20T11:34:12;24.40;43.10
56478;DHT22;42382;53.210;5.772;2023-07-20T11:36:42;24.40;43.20
56478;DHT22;42382;53.210;5.772;2023-07-20T11:39:10;24.40;42.50
56478;DHT22;42382;53.210;5.772;2023-07-20T11:41:36;24.00;42.60
56478;DHT22;42382;53.210;5.772;2023-07-20T11:44:02;23.70;43.60
56478;DHT22;42382;53.210;5.772;2023-07-20T11:46:28;23.80;43.60
56478;DHT22;42382;53.210;5.772;2023-07-20T11:48:58;23.90;43.70
56478;DHT22;42382;53.210;5.772;2023-07-20T11:51:28;24.20;43.60
56478;DHT22;42382;53.210;5.772;2023-07-20T11:53:55;24.40;42.60
56478;DHT22;42382;53.210;5.772;2023-07-20T11:56:21;24.50;42.50
56478;DHT22;42382;53.210;5.772;2023-07-20T11:58:48;24.60;42.30
56478;DHT22;42382;53.210;5.772;2023-07-20T12:01:14;24.80;42.20
56478;DHT22;42382;53.210;5.772;2023-07-20T12:03:42;24.70;42.00
56478;DHT22;42382;53.210;5.772;2023-07-20T12:06:09;24.80;42.20
56478;DHT22;42382;53.210;5.772;2023-07-20T12:08:35;24.90;41.90
56478;DHT22;42382;53.210;5.772;2023-07-20T12:11:03;24.50;41.30
56478;DHT22;42382;53.210;5.772;2023-07-20T12:13:38;24.50;41.60
56478;DHT22;42382;53.210;5.772;2023-07-20T12:16:12;24.60;40.40
56478;DHT22;42382;53.210;5.772;2023-07-20T12:18:38;24.60;39.70
56478;DHT22;42382;53.210;5.772;2023-07-20T12:21:06;24.60;39.80
56478;DHT22;42382;53.210;5.772;2023-07-20T12:23:39;24.50;39.70
56478;DHT22;42382;53.210;5.772;2023-07-20T12:26:10;24.40;40.00
56478;DHT22;42382;53.210;5.772;2023-07-20T12:28:41;24.40;42.20
56478;DHT22;42382;53.210;5.772;2023-07-20T12:31:08;24.50;42.40
56478;DHT22;42382;53.210;5.772;2023-07-20T12:33:39;24.50;41.70
56478;DHT22;42382;53.210;5.772;2023-07-20T12:36:05;24.50;42.40
56478;DHT22;42382;53.210;5.772;2023-07-20T12:38:31;24.60;41.90
56478;DHT22;42382;53.210;5.772;2023-07-20T12:40:57;24.60;41.70
56478;DHT22;42382;53.210;5.772;2023-07-20T12:43:24;24.70;40.50
56478;DHT22;42382;53.210;5.772;2023-07-20T12:45:49;24.50;38.90
56478;DHT22;42382;53.210;5.772;2023-07-20T12:48:15;24.40;40.40
56478;DHT22;42382;53.210;5.772;2023-07-20T12:50:41;24.30;41.40
56478;DHT22;42382;53.210;5.772;2023-07-20T12:53:07;24.30;41.40
56478;DHT22;42382;53.210;5.772;2023-07-20T12:55:32;24.30;41.30
56478;DHT22;42382;53.210;5.772;2023-07-20T12:57:58;24.30;42.80
56478;DHT22;42382;53.210;5.772;2023-07-20T13:00:24;24.20;42.50
56478;DHT22;42382;53.210;5.772;2023-07-20T13:02:50;24.20;42.30
56478;DHT22;42382;53.210;5.772;2023-07-20T13:05:15;24.20;41.10
56478;DHT22;42382;53.210;5.772;2023-07-20T13:07:42;24.00;41.50
56478;DHT22;42382;53.210;5.772;2023-07-20T13:10:09;24.00;41.80
56478;DHT22;42382;53.210;5.772;2023-07-20T13:12:36;24.10;42.20
56478;DHT22;42382;53.210;5.772;2023-07-20T13:15:03;24.20;41.20
56478;DHT22;42382;53.210;5.772;2023-07-20T13:17:33;24.10;41.10
56478;DHT22;42382;53.210;5.772;2023-07-20T13:19:59;24.10;42.80
56478;DHT22;42382;53.210;5.772;2023-07-20T13:22:25;24.30;42.10
56478;DHT22;42382;53.210;5.772;2023-07-20T13:24:50;24.30;41.30
56478;DHT22;42382;53.210;5.772;2023-07-20T13:27:17;24.20;41.60
56478;DHT22;42382;53.210;5.772;2023-07-20T13:29:43;24.20;42.00
56478;DHT22;42382;53.210;5.772;2023-07-20T13:32:09;24.30;40.90
56478;DHT22;42382;53.210;5.772;2023-07-20T13:34:35;24.30;40.80
56478;DHT22;42382;53.210;5.772;2023-07-20T13:37:01;24.40;40.80
56478;DHT22;42382;53.210;5.772;2023-07-20T13:39:27;24.30;41.10
56478;DHT22;42382;53.210;5.772;2023-07-20T13:41:54;24.40;41.50
56478;DHT22;42382;53.210;5.772;2023-07-20T13:44:20;24.40;40.90
56478;DHT22;42382;53.210;5.772;2023-07-20T13:46:47;24.40;40.30
56478;DHT22;42382;53.210;5.772;2023-07-20T13:49:12;24.40;40.80
56478;DHT22;42382;53.210;5.772;2023-07-20T13:51:39;24.40;40.70
56478;DHT22;42382;53.210;5.772;2023-07-20T13:54:05;24.30;41.10
56478;DHT22;42382;53.210;5.772;2023-07-20T13:56:31;24.30;41.80
56478;DHT22;42382;53.210;5.772;2023-07-20T13:58:57;24.20;41.00
56478;DHT22;42382;53.210;5.772;2023-07-20T14:01:23;24.10;40.10
56478;DHT22;42382;53.210;5.772;2023-07-20T14:03:50;24.00;40.70
56478;DHT22;42382;53.210;5.772;2023-07-20T14:06:16;23.80;41.80
56478;DHT22;42382;53.210;5.772;2023-07-20T14:08:43;23.70;43.00
56478;DHT22;42382;53.210;5.772;2023-07-20T14:11:12;23.60;43.30
56478;DHT22;42382;53.210;5.772;2023-07-20T14:13:38;23.70;43.40
56478;DHT22;42382;53.210;5.772;2023-07-20T14:16:04;23.50;42.70
56478;DHT22;42382;53.210;5.772;2023-07-20T14:18:29;23.50;43.40
56478;DHT22;42382;53.210;5.772;2023-07-20T14:20:55;23.40;43.80
56478;DHT22;42382;53.210;5.772;2023-07-20T14:23:21;23.40;43.40
56478;DHT22;42382;53.210;5.772;2023-07-20T14:25:47;23.40;43.10
56478;DHT22;42382;53.210;5.772;2023-07-20T14:28:13;23.50;43.90
56478;DHT22;42382;53.210;5.772;2023-07-20T14:30:38;23.60;44.00
56478;DHT22;42382;53.210;5.772;2023-07-20T14:33:04;23.60;43.60
56478;DHT22;42382;53.210;5.772;2023-07-20T14:35:29;23.40;44.20
56478;DHT22;42382;53.210;5.772;2023-07-20T14:37:55;23.30;44.10
56478;DHT22;42382;53.210;5.772;2023-07-20T14:40:21;23.30;44.50
56478;DHT22;42382;53.210;5.772;2023-07-20T14:42:46;23.30;44.50
56478;DHT22;42382;53.210;5.772;2023-07-20T14:45:12;23.40;44.60
56478;DHT22;42382;53.210;5.772;2023-07-20T14:47:38;23.40;44.20
56478;DHT22;42382;53.210;5.772;2023-07-20T14:50:05;23.60;44.20
56478;DHT22;42382;53.210;5.772;2023-07-20T14:52:31;23.70;43.60
56478;DHT22;42382;53.210;5.772;2023-07-20T14:54:57;23.70;43.70
56478;DHT22;42382;53.210;5.772;2023-07-20T14:57:22;23.80;44.30
56478;DHT22;42382;53.210;5.772;2023-07-20T14:59:49;23.80;43.80
56478;DHT22;42382;53.210;5.772;2023-07-20T15:02:15;23.90;44.30
56478;DHT22;42382;53.210;5.772;2023-07-20T15:04:51;23.90;44.20
56478;DHT22;42382;53.210;5.772;2023-07-20T15:07:18;23.80;43.70
56478;DHT22;42382;53.210;5.772;2023-07-20T15:09:45;23.80;43.80
56478;DHT22;42382;53.210;5.772;2023-07-20T15:12:11;23.80;43.70
56478;DHT22;42382;53.210;5.772;2023-07-20T15:14:41;23.80;44.10
56478;DHT22;42382;53.210;5.772;2023-07-20T15:17:08;23.80;43.80
56478;DHT22;42382;53.210;5.772;2023-07-20T15:19:34;23.80;43.60
56478;DHT22;42382;53.210;5.772;2023-07-20T15:22:02;23.60;44.40
56478;DHT22;42382;53.210;5.772;2023-07-20T15:24:32;23.50;44.50
56478;DHT22;42382;53.210;5.772;2023-07-20T15:26:58;23.60;45.00
56478;DHT22;42382;53.210;5.772;2023-07-20T15:29:24;23.60;44.90
56478;DHT22;42382;53.210;5.772;2023-07-20T15:31:50;23.50;45.10
56478;DHT22;42382;53.210;5.772;2023-07-20T15:34:15;23.30;44.70
56478;DHT22;42382;53.210;5.772;2023-07-20T15:36:41;23.20;44.90
56478;DHT22;42382;53.210;5.772;2023-07-20T15:39:10;23.30;44.50
56478;DHT22;42382;53.210;5.772;2023-07-20T15:41:38;23.30;44.80
56478;DHT22;42382;53.210;5.772;2023-07-20T15:44:03;23.40;45.10
56478;DHT22;42382;53.210;5.772;2023-07-20T15:49:07;23.50;45.20